createdAt,value
2023-03-16T00:00:22.695Z,963.52
2023-03-16T00:01:17.960Z,963.56
2023-03-16T00:02:13.131Z,963.54
2023-03-16T00:03:08.297Z,963.56
2023-03-16T00:04:03.428Z,963.58
2023-03-16T00:04:58.542Z,963.54
2023-03-16T00:05:53.592Z,963.54
2023-03-16T00:06:48.919Z,963.54
2023-03-16T00:07:43.972Z,963.56
2023-03-16T00:08:39.305Z,963.58
2023-03-16T00:09:34.495Z,963.56
2023-03-16T00:10:29.764Z,963.54
2023-03-16T00:11:24.888Z,963.52
2023-03-16T00:12:20.032Z,963.54
2023-03-16T00:13:15.227Z,963.52
2023-03-16T00:14:10.672Z,963.52
2023-03-16T00:15:05.647Z,963.56
2023-03-16T00:16:00.973Z,963.58
2023-03-16T00:16:56.001Z,963.56
2023-03-16T00:17:51.173Z,963.56
2023-03-16T00:18:46.448Z,963.58
2023-03-16T00:19:41.496Z,963.58
2023-03-16T00:20:36.614Z,963.60
2023-03-16T00:21:31.899Z,963.58
2023-03-16T00:22:27.241Z,963.58
2023-03-16T00:23:22.276Z,963.60
2023-03-16T00:24:17.479Z,963.58
2023-03-16T00:25:12.656Z,963.62
2023-03-16T00:26:07.800Z,963.58
2023-03-16T00:27:02.999Z,963.58
2023-03-16T00:27:58.293Z,963.56
2023-03-16T00:28:53.402Z,963.56
2023-03-16T00:29:48.462Z,963.58
2023-03-16T00:30:43.548Z,963.58
2023-03-16T00:31:38.703Z,963.60
2023-03-16T00:32:33.935Z,963.60
2023-03-16T00:33:29.108Z,963.60
2023-03-16T00:34:24.402Z,963.64
2023-03-16T00:35:19.413Z,963.64
2023-03-16T00:36:14.703Z,963.62
2023-03-16T00:37:09.912Z,963.64
2023-03-16T00:38:05.172Z,963.66
2023-03-16T00:39:00.165Z,963.66
2023-03-16T00:39:55.321Z,963.66
2023-03-16T00:40:50.440Z,963.66
2023-03-16T00:41:45.760Z,963.64
2023-03-16T00:42:40.967Z,963.62
2023-03-16T00:43:36.098Z,963.62
2023-03-16T00:44:31.385Z,963.66
2023-03-16T00:45:26.425Z,963.66
2023-03-16T00:46:21.573Z,963.68
2023-03-16T00:47:16.775Z,963.68
2023-03-16T00:48:11.946Z,963.66
2023-03-16T00:49:07.117Z,963.66
2023-03-16T00:50:02.226Z,963.66
2023-03-16T00:50:57.496Z,963.68
2023-03-16T00:51:52.585Z,963.66
2023-03-16T00:52:47.895Z,963.64
2023-03-16T00:53:42.895Z,963.66
2023-03-16T00:54:38.195Z,963.64
2023-03-16T00:55:33.186Z,963.64
2023-03-16T00:56:28.422Z,963.64
2023-03-16T00:57:23.540Z,963.66
2023-03-16T00:58:18.831Z,963.62
2023-03-16T00:59:13.954Z,963.64
2023-03-16T01:00:09.142Z,963.60
2023-03-16T01:01:04.341Z,963.62
2023-03-16T01:01:59.474Z,963.60
2023-03-16T01:02:54.834Z,963.64
2023-03-16T01:03:49.876Z,963.64
2023-03-16T01:04:45.127Z,963.62
2023-03-16T01:05:40.306Z,963.60
2023-03-16T01:06:35.468Z,963.64
2023-03-16T01:07:30.666Z,963.62
2023-03-16T01:08:25.846Z,963.62
2023-03-16T01:09:20.986Z,963.62
2023-03-16T01:10:16.160Z,963.64
2023-03-16T01:11:11.284Z,963.60
2023-03-16T01:12:06.565Z,963.60
2023-03-16T01:13:01.712Z,963.58
2023-03-16T01:13:56.996Z,963.58
2023-03-16T01:14:52.253Z,963.56
2023-03-16T01:15:47.419Z,963.56
2023-03-16T01:16:42.739Z,963.56
2023-03-16T01:17:37.829Z,963.54
2023-03-16T01:18:33.138Z,963.54
2023-03-16T01:19:28.155Z,963.54
2023-03-16T01:20:23.305Z,963.54
2023-03-16T01:21:18.568Z,963.52
2023-03-16T01:22:13.704Z,963.54
2023-03-16T01:23:08.894Z,963.54
2023-03-16T01:24:04.018Z,963.50
2023-03-16T01:24:59.385Z,963.52
2023-03-16T01:25:54.433Z,963.50
2023-03-16T01:26:49.691Z,963.50
2023-03-16T01:27:45.027Z,963.52
2023-03-16T01:28:40.032Z,963.50
2023-03-16T01:29:35.191Z,963.52
2023-03-16T01:30:30.398Z,963.54
2023-03-16T01:31:25.522Z,963.54
2023-03-16T01:32:20.822Z,963.56
2023-03-16T01:33:15.996Z,963.58
2023-03-16T01:34:11.124Z,963.60
2023-03-16T01:35:06.358Z,963.62
2023-03-16T01:36:01.630Z,963.62
2023-03-16T01:36:56.572Z,963.60
2023-03-16T01:37:51.888Z,963.58
2023-03-16T01:38:46.889Z,963.58
2023-03-16T01:39:42.133Z,963.54
2023-03-16T01:40:37.265Z,963.56
2023-03-16T01:41:32.538Z,963.54
2023-03-16T01:42:27.678Z,963.52
2023-03-16T01:43:22.869Z,963.58
2023-03-16T01:44:18.017Z,963.52
2023-03-16T01:45:13.459Z,963.50
2023-03-16T01:46:09.270Z,963.46
2023-03-16T01:47:04.450Z,963.46
2023-03-16T01:47:59.666Z,963.46
2023-03-16T01:48:54.853Z,963.44
2023-03-16T01:49:50.104Z,963.44
2023-03-16T01:50:45.295Z,963.44
2023-03-16T01:51:40.452Z,963.40
2023-03-16T01:52:35.617Z,963.38
2023-03-16T01:53:30.954Z,963.38
2023-03-16T01:54:26.008Z,963.36
2023-03-16T01:55:21.280Z,963.38
2023-03-16T01:56:16.354Z,963.40
2023-03-16T01:58:38.413Z,963.38
2023-03-16T01:59:33.484Z,963.38
2023-03-16T02:00:28.745Z,963.38
2023-03-16T02:01:23.833Z,963.32
2023-03-16T02:02:18.900Z,963.34
2023-03-16T02:03:14.302Z,963.30
2023-03-16T02:04:09.361Z,963.30
2023-03-16T02:05:04.600Z,963.30
2023-03-16T02:05:59.749Z,963.28
2023-03-16T02:06:54.911Z,963.28
2023-03-16T02:07:50.079Z,963.28
2023-03-16T02:08:45.355Z,963.26
2023-03-16T02:09:40.390Z,963.26
2023-03-16T02:10:35.533Z,963.24
2023-03-16T02:11:30.708Z,963.24
2023-03-16T02:12:25.869Z,963.26
2023-03-16T02:13:21.174Z,963.24
2023-03-16T02:14:16.186Z,963.24
2023-03-16T02:15:11.408Z,963.20
2023-03-16T02:16:06.562Z,963.24
2023-03-16T02:17:01.718Z,963.24
2023-03-16T02:17:56.915Z,963.22
2023-03-16T02:18:52.233Z,963.20
2023-03-16T02:19:47.279Z,963.20
2023-03-16T02:20:42.559Z,963.20
2023-03-16T02:21:37.725Z,963.20
2023-03-16T02:22:32.889Z,963.20
2023-03-16T02:23:28.090Z,963.20
2023-03-16T02:24:23.311Z,963.24
2023-03-16T02:25:18.425Z,963.24
2023-03-16T02:26:13.565Z,963.24
2023-03-16T02:27:08.708Z,963.26
2023-03-16T02:28:04.043Z,963.24
2023-03-16T02:28:59.321Z,963.24
2023-03-16T02:29:54.385Z,963.24
2023-03-16T02:30:49.572Z,963.20
2023-03-16T02:31:44.732Z,963.20
2023-03-16T02:32:39.962Z,963.20
2023-03-16T02:33:35.264Z,963.22
2023-03-16T02:34:30.326Z,963.22
2023-03-16T02:35:25.487Z,963.24
2023-03-16T02:36:20.629Z,963.24
2023-03-16T02:37:15.786Z,963.24
2023-03-16T02:38:10.958Z,963.24
2023-03-16T02:39:06.270Z,963.24
2023-03-16T02:40:01.295Z,963.22
2023-03-16T02:40:56.425Z,963.20
2023-03-16T02:41:51.559Z,963.20
2023-03-16T02:42:46.838Z,963.16
2023-03-16T02:43:41.995Z,963.18
2023-03-16T02:45:53.934Z,963.18
2023-03-16T02:46:49.140Z,963.20
2023-03-16T02:47:44.328Z,963.18
2023-03-16T02:48:39.711Z,963.20
2023-03-16T02:49:34.775Z,963.15
2023-03-16T02:50:30.048Z,963.16
2023-03-16T02:51:25.170Z,963.15
2023-03-16T02:52:20.348Z,963.15
2023-03-16T02:53:15.536Z,963.16
2023-03-16T02:54:10.849Z,963.13
2023-03-16T02:55:05.863Z,963.13
2023-03-16T02:56:01.112Z,963.13
2023-03-16T02:56:56.318Z,963.11
2023-03-16T02:57:51.514Z,963.09
2023-03-16T02:58:46.770Z,963.11
2023-03-16T02:59:41.954Z,963.09
2023-03-16T03:00:37.196Z,963.11
2023-03-16T03:01:32.444Z,963.05
2023-03-16T03:02:27.632Z,963.07
2023-03-16T03:03:22.867Z,963.05
2023-03-16T03:04:18.162Z,963.03
2023-03-16T03:05:13.341Z,963.03
2023-03-16T03:06:08.688Z,963.01
2023-03-16T03:07:03.778Z,963.01
2023-03-16T03:07:59.113Z,963.01
2023-03-16T03:08:54.507Z,962.99
2023-03-16T03:09:49.592Z,962.99
2023-03-16T03:10:44.772Z,962.99
2023-03-16T03:11:39.998Z,962.99
2023-03-16T03:12:35.203Z,962.97
2023-03-16T03:13:30.419Z,962.97
2023-03-16T03:14:25.642Z,963.01
2023-03-16T03:15:20.964Z,963.01
2023-03-16T03:16:16.411Z,962.99
2023-03-16T03:17:11.480Z,962.99
2023-03-16T03:18:06.848Z,962.97
2023-03-16T03:19:01.944Z,962.97
2023-03-16T03:19:57.122Z,962.97
2023-03-16T03:20:52.474Z,962.95
2023-03-16T03:21:47.701Z,962.97
2023-03-16T03:22:42.893Z,962.99
2023-03-16T03:23:38.272Z,963.01
2023-03-16T03:24:33.382Z,963.01
2023-03-16T03:25:28.604Z,963.05
2023-03-16T03:26:23.947Z,963.07
2023-03-16T03:27:19.030Z,963.07
2023-03-16T03:28:14.429Z,963.07
2023-03-16T03:29:09.539Z,963.09
2023-03-16T03:30:04.740Z,963.09
2023-03-16T03:30:59.946Z,963.09
2023-03-16T03:31:55.224Z,963.07
2023-03-16T03:32:50.455Z,963.07
2023-03-16T03:33:45.726Z,963.03
2023-03-16T03:34:40.940Z,963.03
2023-03-16T03:35:36.315Z,963.03
2023-03-16T03:36:31.662Z,963.03
2023-03-16T03:37:26.824Z,963.03
2023-03-16T03:38:22.036Z,963.03
2023-03-16T03:39:17.264Z,962.99
2023-03-16T03:40:12.438Z,963.01
2023-03-16T03:41:07.666Z,963.03
2023-03-16T03:42:03.067Z,963.01
2023-03-16T03:42:58.138Z,963.01
2023-03-16T03:43:53.302Z,963.01
2023-03-16T03:44:48.557Z,962.99
2023-03-16T03:45:43.774Z,962.99
2023-03-16T03:46:39.183Z,962.95
2023-03-16T03:47:34.286Z,962.95
2023-03-16T03:48:29.292Z,962.95
2023-03-16T03:49:24.459Z,962.95
2023-03-16T03:50:19.608Z,962.97
2023-03-16T03:51:14.763Z,962.97
2023-03-16T03:52:10.197Z,963.01
2023-03-16T03:53:05.275Z,962.97
2023-03-16T03:54:00.509Z,962.99
2023-03-16T03:54:55.793Z,962.97
2023-03-16T03:55:51.030Z,962.97
2023-03-16T03:56:46.381Z,962.95
2023-03-16T03:57:41.694Z,962.93
2023-03-16T03:58:36.758Z,962.91
2023-03-16T03:59:31.992Z,962.91
2023-03-16T04:00:27.420Z,962.91
2023-03-16T04:01:22.453Z,962.91
2023-03-16T04:02:17.948Z,962.95
2023-03-16T04:03:12.972Z,962.91
2023-03-16T04:04:08.110Z,962.89
2023-03-16T04:05:03.361Z,962.89
2023-03-16T04:05:58.542Z,962.93
2023-03-16T04:06:53.915Z,962.91
2023-03-16T04:07:49.001Z,962.93
2023-03-16T04:08:44.337Z,962.95
2023-03-16T04:09:39.547Z,962.95
2023-03-16T04:10:34.891Z,962.93
2023-03-16T04:11:30.094Z,962.93
2023-03-16T04:12:25.349Z,962.95
2023-03-16T04:13:20.707Z,962.97
2023-03-16T04:14:16.500Z,962.95
2023-03-16T04:15:11.720Z,962.95
2023-03-16T04:16:06.940Z,962.97
2023-03-16T04:17:02.496Z,962.95
2023-03-16T04:17:57.610Z,962.95
2023-03-16T04:18:52.803Z,962.93
2023-03-16T04:19:48.104Z,962.93
2023-03-16T04:20:43.336Z,962.93
2023-03-16T04:21:38.705Z,962.89
2023-03-16T04:22:33.942Z,962.89
2023-03-16T04:23:29.132Z,962.89
2023-03-16T04:24:24.376Z,962.87
2023-03-16T04:25:19.656Z,962.89
2023-03-16T04:26:14.886Z,962.89
2023-03-16T04:27:10.108Z,962.87
2023-03-16T04:28:05.331Z,962.81
2023-03-16T04:29:00.528Z,962.79
2023-03-16T04:29:55.770Z,962.77
2023-03-16T04:30:51.267Z,962.75
2023-03-16T04:31:46.339Z,962.77
2023-03-16T04:32:41.675Z,962.81
2023-03-16T04:33:36.777Z,962.83
2023-03-16T04:34:32.137Z,962.83
2023-03-16T04:35:27.241Z,962.85
2023-03-16T04:36:22.657Z,962.85
2023-03-16T04:37:17.788Z,962.85
2023-03-16T04:38:12.994Z,962.85
2023-03-16T04:39:08.184Z,962.83
2023-03-16T04:40:03.417Z,962.83
2023-03-16T04:40:58.783Z,962.83
2023-03-16T04:41:53.983Z,962.83
2023-03-16T04:42:49.222Z,962.83
2023-03-16T04:43:44.480Z,962.85
2023-03-16T04:44:39.766Z,962.83
2023-03-16T04:45:36.277Z,962.83
2023-03-16T04:46:31.577Z,962.81
2023-03-16T04:47:26.772Z,962.77
2023-03-16T04:48:21.988Z,962.77
2023-03-16T04:49:17.202Z,962.75
2023-03-16T04:50:16.757Z,962.77
2023-03-16T04:51:12.029Z,962.77
2023-03-16T04:52:07.072Z,962.75
2023-03-16T04:53:02.311Z,962.75
2023-03-16T04:53:57.680Z,962.75
2023-03-16T04:54:52.894Z,962.77
2023-03-16T04:55:48.286Z,962.75
2023-03-16T04:56:43.265Z,962.71
2023-03-16T04:57:38.623Z,962.71
2023-03-16T04:58:33.739Z,962.69
2023-03-16T04:59:28.931Z,962.69
2023-03-16T05:00:24.185Z,962.71
2023-03-16T05:01:19.413Z,962.68
2023-03-16T05:02:14.625Z,962.64
2023-03-16T05:03:09.792Z,962.60
2023-03-16T05:04:05.123Z,962.60
2023-03-16T05:05:00.262Z,962.58
2023-03-16T05:05:55.568Z,962.58
2023-03-16T05:06:50.667Z,962.54
2023-03-16T05:07:45.857Z,962.54
2023-03-16T05:08:40.984Z,962.54
2023-03-16T05:09:36.273Z,962.52
2023-03-16T05:10:31.471Z,962.54
2023-03-16T05:11:26.649Z,962.56
2023-03-16T05:12:21.972Z,962.58
2023-03-16T05:13:17.029Z,962.60
2023-03-16T05:14:12.190Z,962.62
2023-03-16T05:15:07.546Z,962.62
2023-03-16T05:16:02.820Z,962.64
2023-03-16T05:16:58.065Z,962.62
2023-03-16T05:17:53.180Z,962.62
2023-03-16T05:18:48.318Z,962.62
2023-03-16T05:19:43.294Z,962.62
2023-03-16T05:20:38.390Z,962.62
2023-03-16T05:21:33.523Z,962.60
2023-03-16T05:22:28.495Z,962.60
2023-03-16T05:23:23.562Z,962.64
2023-03-16T05:24:18.683Z,962.68
2023-03-16T05:25:13.767Z,962.68
2023-03-16T05:26:09.039Z,962.71
2023-03-16T05:27:03.890Z,962.71
2023-03-16T05:27:58.949Z,962.71
2023-03-16T05:28:54.125Z,962.73
2023-03-16T05:29:49.382Z,962.77
2023-03-16T05:30:44.559Z,962.73
2023-03-16T05:31:39.497Z,962.73
2023-03-16T05:32:34.499Z,962.73
2023-03-16T05:33:29.508Z,962.71
2023-03-16T05:34:24.532Z,962.71
2023-03-16T05:35:19.584Z,962.68
2023-03-16T05:36:14.871Z,962.69
2023-03-16T05:37:09.991Z,962.69
2023-03-16T05:38:05.282Z,962.68
2023-03-16T05:39:00.676Z,962.69
2023-03-16T05:39:55.996Z,962.68
2023-03-16T05:40:51.525Z,962.66
2023-03-16T05:41:46.718Z,962.66
2023-03-16T05:42:42.051Z,962.66
2023-03-16T05:43:37.365Z,962.66
2023-03-16T05:44:32.700Z,962.64
2023-03-16T05:45:28.086Z,962.68
2023-03-16T05:46:26.125Z,962.69
2023-03-16T05:47:21.388Z,962.68
2023-03-16T05:48:16.725Z,962.68
2023-03-16T05:49:12.103Z,962.68
2023-03-16T05:50:07.580Z,962.68
2023-03-16T05:51:03.342Z,962.71
2023-03-16T05:51:58.829Z,962.71
2023-03-16T05:52:54.177Z,962.73
2023-03-16T05:53:49.563Z,962.71
2023-03-16T05:54:44.919Z,962.73
2023-03-16T05:55:40.417Z,962.73
2023-03-16T05:56:35.672Z,962.71
2023-03-16T05:57:31.001Z,962.71
2023-03-16T05:58:26.360Z,962.73
2023-03-16T05:59:21.736Z,962.75
2023-03-16T06:00:17.121Z,962.75
2023-03-16T06:01:12.727Z,962.73
2023-03-16T06:02:07.835Z,962.69
2023-03-16T06:03:03.274Z,962.68
2023-03-16T06:03:58.640Z,962.69
2023-03-16T06:04:53.930Z,962.69
2023-03-16T06:05:49.519Z,962.68
2023-03-16T06:06:44.832Z,962.68
2023-03-16T06:07:40.204Z,962.69
2023-03-16T06:08:35.646Z,962.73
2023-03-16T06:09:35.411Z,962.73
2023-03-16T06:10:30.855Z,962.73
2023-03-16T06:11:26.099Z,962.73
2023-03-16T06:12:21.491Z,962.71
2023-03-16T06:13:17.043Z,962.73
2023-03-16T06:14:12.428Z,962.71
2023-03-16T06:15:07.877Z,962.71
2023-03-16T06:16:03.445Z,962.69
2023-03-16T06:16:58.758Z,962.68
2023-03-16T06:17:54.368Z,962.66
2023-03-16T06:18:49.865Z,962.68
2023-03-16T06:19:45.269Z,962.66
2023-03-16T06:20:40.795Z,962.62
2023-03-16T06:21:36.180Z,962.66
2023-03-16T06:22:31.695Z,962.64
2023-03-16T06:23:26.738Z,962.66
2023-03-16T06:24:21.772Z,962.68
2023-03-16T06:25:16.981Z,962.75
2023-03-16T06:26:11.912Z,962.71
2023-03-16T06:27:06.961Z,962.75
2023-03-16T06:28:02.010Z,962.73
2023-03-16T06:28:57.106Z,962.73
2023-03-16T06:29:52.171Z,962.71
2023-03-16T06:30:47.247Z,962.73
2023-03-16T06:31:42.428Z,962.69
2023-03-16T06:32:37.387Z,962.71
2023-03-16T06:33:32.473Z,962.73
2023-03-16T06:34:27.491Z,962.71
2023-03-16T06:35:22.695Z,962.71
2023-03-16T06:36:17.594Z,962.71
2023-03-16T06:37:12.656Z,962.69
2023-03-16T06:38:07.699Z,962.68
2023-03-16T06:39:02.754Z,962.66
2023-03-16T06:39:57.808Z,962.69
2023-03-16T06:40:52.902Z,962.71
2023-03-16T06:41:47.920Z,962.71
2023-03-16T06:42:46.612Z,962.69
2023-03-16T06:43:39.458Z,962.69
2023-03-16T06:44:35.059Z,962.69
2023-03-16T06:45:30.481Z,962.69
2023-03-16T06:46:26.025Z,962.71
2023-03-16T06:47:21.500Z,962.73
2023-03-16T06:48:16.898Z,962.73
2023-03-16T06:49:12.320Z,962.71
2023-03-16T06:50:07.851Z,962.69
2023-03-16T06:51:03.296Z,962.71
2023-03-16T06:51:58.767Z,962.71
2023-03-16T06:52:54.234Z,962.68
2023-03-16T06:53:49.689Z,962.68
2023-03-16T06:54:45.136Z,962.66
2023-03-16T06:55:44.582Z,962.69
2023-03-16T06:56:39.773Z,962.73
2023-03-16T06:57:35.643Z,962.73
2023-03-16T06:58:31.250Z,962.75
2023-03-16T06:59:26.571Z,962.77
2023-03-16T07:00:22.182Z,962.79
2023-03-16T07:01:17.886Z,962.81
2023-03-16T07:02:13.138Z,962.73
2023-03-16T07:03:08.570Z,962.73
2023-03-16T07:04:04.075Z,962.69
2023-03-16T07:04:59.799Z,962.69
2023-03-16T07:05:54.544Z,962.68
2023-03-16T07:06:49.597Z,962.66
2023-03-16T07:07:44.774Z,962.66
2023-03-16T07:08:39.897Z,962.69
2023-03-16T07:09:38.205Z,962.66
2023-03-16T07:10:30.282Z,962.68
2023-03-16T07:11:25.108Z,962.69
2023-03-16T07:12:20.172Z,962.64
2023-03-16T07:13:15.225Z,962.64
2023-03-16T07:14:10.290Z,962.66
2023-03-16T07:15:05.474Z,962.68
2023-03-16T07:16:02.138Z,962.68
2023-03-16T07:16:57.653Z,962.68
2023-03-16T07:17:53.100Z,962.68
2023-03-16T07:18:48.545Z,962.71
2023-03-16T07:19:44.368Z,962.71
2023-03-16T07:20:39.699Z,962.71
2023-03-16T07:21:35.316Z,962.69
2023-03-16T07:22:30.755Z,962.73
2023-03-16T07:23:26.203Z,962.71
2023-03-16T07:24:21.698Z,962.77
2023-03-16T07:25:17.290Z,962.73
2023-03-16T07:26:12.468Z,962.73
2023-03-16T07:27:07.963Z,962.71
2023-03-16T07:28:03.497Z,962.73
2023-03-16T07:28:58.577Z,962.69
2023-03-16T07:29:53.854Z,962.73
2023-03-16T07:31:02.934Z,962.69
2023-03-16T07:31:44.962Z,962.69
2023-03-16T07:32:39.054Z,962.73
2023-03-16T07:33:33.956Z,962.77
2023-03-16T07:34:29.149Z,962.77
2023-03-16T07:35:24.351Z,962.77
2023-03-16T07:36:19.423Z,962.75
2023-03-16T07:37:14.394Z,962.75
2023-03-16T07:38:09.525Z,962.73
2023-03-16T07:39:04.557Z,962.75
2023-03-16T07:39:59.675Z,962.71
2023-03-16T07:40:54.806Z,962.77
2023-03-16T07:41:49.783Z,962.71
2023-03-16T07:42:44.780Z,962.75
2023-03-16T07:43:39.986Z,962.71
2023-03-16T07:44:35.091Z,962.73
2023-03-16T07:45:30.263Z,962.75
2023-03-16T07:46:25.351Z,962.77
2023-03-16T07:47:20.738Z,962.81
2023-03-16T07:48:16.190Z,962.83
2023-03-16T07:49:11.604Z,962.83
2023-03-16T07:50:07.020Z,962.81
2023-03-16T07:51:02.552Z,962.83
2023-03-16T07:51:58.023Z,962.81
2023-03-16T07:52:53.600Z,962.81
2023-03-16T07:53:48.879Z,962.79
2023-03-16T07:54:44.695Z,962.79
2023-03-16T07:55:40.005Z,962.83
2023-03-16T07:56:47.890Z,962.85
2023-03-16T07:58:56.591Z,962.87
2023-03-16T07:59:50.304Z,962.87
2023-03-16T08:00:45.593Z,962.87
2023-03-16T08:01:41.072Z,962.87
2023-03-16T08:02:36.534Z,962.87
2023-03-16T08:03:32.334Z,962.87
2023-03-16T08:04:27.583Z,962.83
2023-03-16T08:05:22.999Z,962.81
2023-03-16T08:06:18.424Z,962.81
2023-03-16T08:07:13.883Z,962.79
2023-03-16T08:08:09.436Z,962.79
2023-03-16T08:09:04.858Z,962.81
2023-03-16T08:10:00.332Z,962.85
2023-03-16T08:10:56.736Z,962.87
2023-03-16T08:11:51.257Z,962.89
2023-03-16T08:12:46.802Z,962.89
2023-03-16T08:13:42.296Z,962.87
2023-03-16T08:14:37.946Z,962.87
2023-03-16T08:15:33.122Z,962.91
2023-03-16T08:16:28.634Z,962.89
2023-03-16T08:17:24.028Z,962.89
2023-03-16T08:18:19.616Z,962.91
2023-03-16T08:19:15.186Z,962.89
2023-03-16T08:20:10.526Z,962.87
2023-03-16T08:21:06.019Z,962.87
2023-03-16T08:22:02.152Z,962.85
2023-03-16T08:22:56.859Z,962.85
2023-03-16T08:23:52.355Z,962.83
2023-03-16T08:24:47.846Z,962.85
2023-03-16T08:25:43.367Z,962.89
2023-03-16T08:26:39.617Z,962.93
2023-03-16T08:27:34.229Z,962.89
2023-03-16T08:28:29.893Z,962.93
2023-03-16T08:29:25.373Z,962.89
2023-03-16T08:30:20.800Z,962.91
2023-03-16T08:31:16.442Z,962.93
2023-03-16T08:32:11.747Z,962.89
2023-03-16T08:33:07.305Z,962.95
2023-03-16T08:34:02.759Z,962.97
2023-03-16T08:34:58.388Z,962.93
2023-03-16T08:35:53.743Z,962.95
2023-03-16T08:36:49.178Z,962.95
2023-03-16T08:37:44.614Z,962.95
2023-03-16T08:38:40.035Z,962.97
2023-03-16T08:39:35.605Z,962.99
2023-03-16T08:40:31.270Z,963.01
2023-03-16T08:41:26.473Z,963.01
2023-03-16T08:42:21.965Z,963.01
2023-03-16T08:43:17.401Z,963.05
2023-03-16T08:44:12.898Z,963.07
2023-03-16T08:45:08.547Z,963.07
2023-03-16T08:46:04.004Z,963.03
2023-03-16T08:46:59.356Z,963.03
2023-03-16T08:47:54.914Z,963.03
2023-03-16T08:48:50.379Z,963.03
2023-03-16T08:49:46.082Z,963.01
2023-03-16T08:50:41.316Z,963.05
2023-03-16T08:51:36.782Z,963.05
2023-03-16T08:52:32.294Z,963.05
2023-03-16T08:53:27.916Z,963.03
2023-03-16T08:54:23.592Z,963.05
2023-03-16T08:55:19.013Z,963.05
2023-03-16T08:56:14.566Z,963.01
2023-03-16T08:57:10.057Z,963.03
2023-03-16T08:58:05.581Z,963.07
2023-03-16T08:59:01.129Z,963.07
2023-03-16T08:59:56.685Z,963.09
2023-03-16T09:00:52.082Z,963.09
2023-03-16T09:01:47.662Z,963.09
2023-03-16T09:02:43.146Z,963.09
2023-03-16T09:03:38.542Z,963.07
2023-03-16T09:04:34.275Z,963.05
2023-03-16T09:05:29.521Z,963.05
2023-03-16T09:06:25.088Z,962.99
2023-03-16T09:07:20.678Z,962.99
2023-03-16T09:08:16.232Z,963.01
2023-03-16T09:09:11.950Z,963.03
2023-03-16T09:10:07.283Z,963.03
2023-03-16T09:11:02.725Z,963.01
2023-03-16T09:11:58.216Z,962.99
2023-03-16T09:12:53.740Z,962.97
2023-03-16T09:13:50.684Z,962.99
2023-03-16T09:14:44.672Z,962.99
2023-03-16T09:15:40.420Z,962.97
2023-03-16T09:16:35.961Z,962.97
2023-03-16T09:17:31.245Z,962.97
2023-03-16T09:18:26.815Z,962.97
2023-03-16T09:19:22.538Z,962.99
2023-03-16T09:20:33.438Z,962.97
2023-03-16T09:21:14.174Z,963.01
2023-03-16T09:22:08.612Z,962.97
2023-03-16T09:23:04.091Z,962.97
2023-03-16T09:23:59.823Z,962.97
2023-03-16T09:24:54.969Z,962.95
2023-03-16T09:25:50.404Z,962.95
2023-03-16T09:26:46.098Z,962.93
2023-03-16T09:27:41.433Z,962.93
2023-03-16T09:28:36.911Z,962.87
2023-03-16T09:29:32.592Z,962.87
2023-03-16T09:30:28.389Z,962.85
2023-03-16T09:31:23.678Z,962.87
2023-03-16T09:32:19.170Z,962.83
2023-03-16T09:33:14.645Z,962.83
2023-03-16T09:34:10.188Z,962.81
2023-03-16T09:35:05.736Z,962.87
2023-03-16T09:36:01.409Z,962.81
2023-03-16T09:36:56.699Z,962.83
2023-03-16T09:38:05.259Z,962.81
2023-03-16T09:38:48.550Z,962.79
2023-03-16T09:39:42.923Z,962.85
2023-03-16T09:40:38.438Z,962.83
2023-03-16T09:41:33.959Z,962.87
2023-03-16T09:42:29.372Z,962.81
2023-03-16T09:43:24.865Z,962.83
2023-03-16T09:44:20.700Z,962.79
2023-03-16T09:45:16.135Z,962.75
2023-03-16T09:46:11.750Z,962.79
2023-03-16T09:47:07.434Z,962.79
2023-03-16T09:48:02.776Z,962.77
2023-03-16T09:48:58.434Z,962.81
2023-03-16T09:49:53.665Z,962.77
2023-03-16T09:50:49.836Z,962.79
2023-03-16T09:51:44.764Z,962.75
2023-03-16T09:52:40.333Z,962.75
2023-03-16T09:53:35.759Z,962.73
2023-03-16T09:54:31.289Z,962.73
2023-03-16T09:55:27.290Z,962.73
2023-03-16T09:56:22.435Z,962.71
2023-03-16T09:57:17.902Z,962.68
2023-03-16T09:58:13.318Z,962.66
2023-03-16T09:59:08.919Z,962.64
2023-03-16T10:00:04.291Z,962.64
2023-03-16T10:00:59.984Z,962.66
2023-03-16T10:01:55.313Z,962.64
2023-03-16T10:02:50.778Z,962.62
2023-03-16T10:03:46.389Z,962.66
2023-03-16T10:04:41.704Z,962.64
2023-03-16T10:05:37.210Z,962.62
2023-03-16T10:06:32.807Z,962.64
2023-03-16T10:07:28.317Z,962.60
2023-03-16T10:08:23.942Z,962.60
2023-03-16T10:09:19.326Z,962.52
2023-03-16T10:10:14.785Z,962.54
2023-03-16T10:11:10.268Z,962.52
2023-03-16T10:12:05.876Z,962.52
2023-03-16T10:13:01.368Z,962.48
2023-03-16T10:13:56.982Z,962.42
2023-03-16T10:14:52.496Z,962.38
2023-03-16T10:15:47.888Z,962.40
2023-03-16T10:16:43.380Z,962.38
2023-03-16T10:17:39.014Z,962.34
2023-03-16T10:18:34.510Z,962.34
2023-03-16T10:19:29.901Z,962.34
2023-03-16T10:20:25.326Z,962.28
2023-03-16T10:21:20.721Z,962.26
2023-03-16T10:22:16.351Z,962.26
2023-03-16T10:23:11.731Z,962.26
2023-03-16T10:24:07.266Z,962.18
2023-03-16T10:25:02.632Z,962.16
2023-03-16T10:25:58.125Z,962.14
2023-03-16T10:26:53.572Z,962.14
2023-03-16T10:27:49.092Z,962.09
2023-03-16T10:28:44.874Z,962.07
2023-03-16T10:29:40.218Z,962.03
2023-03-16T10:30:35.717Z,962.07
2023-03-16T10:31:31.363Z,962.03
2023-03-16T10:32:27.635Z,962.05
2023-03-16T10:33:22.223Z,962.09
2023-03-16T10:34:17.907Z,962.09
2023-03-16T10:35:13.426Z,962.07
2023-03-16T10:36:08.892Z,962.09
2023-03-16T10:37:04.402Z,962.05
2023-03-16T10:37:59.930Z,962.03
2023-03-16T10:38:55.380Z,962.03
2023-03-16T10:39:51.199Z,962.05
2023-03-16T10:40:46.505Z,962.01
2023-03-16T10:41:42.046Z,962.03
2023-03-16T10:42:37.516Z,962.05
2023-03-16T10:43:33.015Z,962.07
2023-03-16T10:44:28.581Z,962.01
2023-03-16T10:45:24.067Z,962.03
2023-03-16T10:46:19.643Z,961.99
2023-03-16T10:47:15.145Z,962.03
2023-03-16T10:48:10.609Z,962.01
2023-03-16T10:49:06.405Z,961.97
2023-03-16T10:50:01.485Z,961.87
2023-03-16T10:50:56.852Z,961.91
2023-03-16T10:51:52.218Z,961.89
2023-03-16T10:52:47.872Z,961.87
2023-03-16T10:53:43.259Z,961.89
2023-03-16T10:54:38.935Z,961.89
2023-03-16T10:55:34.293Z,961.91
2023-03-16T10:56:29.724Z,961.93
2023-03-16T10:57:25.202Z,961.95
2023-03-16T10:58:20.706Z,961.93
2023-03-16T10:59:16.412Z,961.93
2023-03-16T11:00:11.796Z,961.91
2023-03-16T11:01:07.329Z,961.87
2023-03-16T11:02:02.866Z,961.85
2023-03-16T11:02:58.333Z,961.83
2023-03-16T11:03:54.055Z,961.79
2023-03-16T11:04:49.289Z,961.79
2023-03-16T11:05:44.737Z,961.75
2023-03-16T11:06:40.136Z,961.75
2023-03-16T11:07:35.681Z,961.75
2023-03-16T11:08:31.334Z,961.75
2023-03-16T11:09:26.972Z,961.77
2023-03-16T11:10:22.317Z,961.77
2023-03-16T11:11:17.813Z,961.79
2023-03-16T11:12:13.354Z,961.77
2023-03-16T11:13:08.826Z,961.79
2023-03-16T11:14:04.526Z,961.77
2023-03-16T11:14:59.797Z,961.79
2023-03-16T11:15:55.255Z,961.81
2023-03-16T11:16:50.951Z,961.83
2023-03-16T11:17:46.239Z,961.85
2023-03-16T11:18:41.921Z,961.83
2023-03-16T11:19:37.391Z,961.85
2023-03-16T11:20:32.932Z,961.83
2023-03-16T11:21:28.185Z,961.83
2023-03-16T11:22:23.602Z,961.79
2023-03-16T11:23:18.959Z,961.81
2023-03-16T11:24:14.440Z,961.81
2023-03-16T11:25:10.206Z,961.83
2023-03-16T11:26:05.535Z,961.79
2023-03-16T11:27:01.097Z,961.75
2023-03-16T11:27:56.486Z,961.71
2023-03-16T11:28:51.975Z,961.71
2023-03-16T11:29:47.609Z,961.64
2023-03-16T11:30:43.142Z,961.62
2023-03-16T11:31:38.518Z,961.62
2023-03-16T11:32:33.955Z,961.52
2023-03-16T11:33:29.459Z,961.60
2023-03-16T11:34:25.049Z,961.50